Time;durP1;ratioP1;P1;durP2;ratioP2;P2;SDS_P1;SDS_P2;PMS_P1;PMS_P2;Temp;Humidity;BMP_temperature;BMP_pressure;BME280_temperature;BME280_humidity;BME280_pressure;Samples;Min_cycle;Max_cycle;Signal;HPM_P1;HPM_P2
2024/03/11 00:00:15;;;;;;;32.23;26.43;;;8.60;99.90;;;;;;4974412;28;20807;-62
2024/03/11 00:02:42;;;;;;;32.20;27.20;;;8.60;99.90;;;;;;4974349;28;20448;-62
2024/03/11 00:05:11;;;;;;;36.47;28.83;;;8.60;99.90;;;;;;4974184;28;21077;-62
2024/03/11 00:07:38;;;;;;;32.37;28.33;;;8.60;99.90;;;;;;4973406;28;20963;-62
2024/03/11 00:10:11;;;;;;;33.43;26.70;;;8.60;99.90;;;;;;4973210;28;20459;-62
2024/03/11 00:12:40;;;;;;;29.23;24.93;;;8.60;99.90;;;;;;4973877;28;20481;-62
2024/03/11 00:15:09;;;;;;;24.73;20.40;;;8.60;99.90;;;;;;4973734;28;20476;-62
2024/03/11 00:17:36;;;;;;;22.57;18.43;;;8.60;99.90;;;;;;4973418;28;20456;-62
2024/03/11 00:20:04;;;;;;;21.63;19.30;;;8.60;99.90;;;;;;4973370;28;20445;-62
2024/03/11 00:22:31;;;;;;;18.13;16.30;;;8.60;99.90;;;;;;4974162;28;20459;-62
2024/03/11 00:24:58;;;;;;;17.13;15.33;;;8.60;99.90;;;;;;4973829;28;20471;-62
2024/03/11 00:27:25;;;;;;;19.47;17.47;;;8.60;99.90;;;;;;4973776;28;20449;-61
2024/03/11 00:29:53;;;;;;;15.93;14.53;;;8.60;99.90;;;;;;4973019;28;20495;-62
2024/03/11 00:32:24;;;;;;;16.27;14.60;;;8.50;99.90;;;;;;4971887;28;20449;-62
2024/03/11 00:34:51;;;;;;;15.20;12.90;;;8.50;99.90;;;;;;4973106;28;20571;-62
2024/03/11 00:37:18;;;;;;;13.17;11.67;;;8.50;99.90;;;;;;4973707;28;20448;-62
2024/03/11 00:39:45;;;;;;;12.83;11.63;;;8.50;99.90;;;;;;4973034;28;20495;-62
2024/03/11 00:42:12;;;;;;;10.97;9.90;;;8.40;99.90;;;;;;4973728;28;21143;-62
2024/03/11 00:44:38;;;;;;;10.73;9.77;;;8.40;99.90;;;;;;4973474;28;21057;-62
2024/03/11 00:47:07;;;;;;;9.57;8.77;;;8.40;99.90;;;;;;4973265;28;20536;-62
2024/03/11 00:49:34;;;;;;;9.30;8.37;;;8.30;99.90;;;;;;4973139;28;20924;-62
2024/03/11 00:52:01;;;;;;;8.33;7.63;;;8.30;99.90;;;;;;4973603;28;20444;-61
2024/03/11 00:54:28;;;;;;;8.98;8.18;;;8.20;99.90;;;;;;4973194;28;20477;-61
2024/03/11 00:56:55;;;;;;;8.45;7.38;;;8.20;99.90;;;;;;4973449;28;20568;-61
2024/03/11 00:59:22;;;;;;;10.32;9.43;;;8.20;99.90;;;;;;4973378;28;20240;-62
2024/03/11 01:01:49;;;;;;;7.10;6.60;;;8.20;99.90;;;;;;4972255;28;20205;-62
2024/03/11 01:04:18;;;;;;;8.55;7.80;;;8.20;99.90;;;;;;4973017;28;20224;-62
2024/03/11 01:06:45;;;;;;;9.60;8.60;;;8.10;99.90;;;;;;4973205;28;20214;-62
2024/03/11 01:09:12;;;;;;;8.87;8.00;;;8.10;99.90;;;;;;4973108;28;20678;-62
2024/03/11 01:11:40;;;;;;;8.20;7.50;;;8.10;99.90;;;;;;4972637;28;20491;-62
2024/03/11 01:14:09;;;;;;;9.40;8.50;;;8.10;99.90;;;;;;4972745;28;21097;-61
2024/03/11 01:16:37;;;;;;;8.73;7.90;;;8.10;99.90;;;;;;4972760;28;20239;-62
2024/03/11 01:19:07;;;;;;;8.93;7.63;;;8.10;99.90;;;;;;4971536;28;20515;-62
2024/03/11 01:21:35;;;;;;;9.10;8.30;;;8.10;99.90;;;;;;4972457;28;20252;-62
2024/03/11 01:24:03;;;;;;;8.13;7.43;;;8.10;99.90;;;;;;4972778;28;20498;-62
2024/03/11 01:26:30;;;;;;;7.13;6.53;;;8.10;99.90;;;;;;4972832;28;20220;-62
2024/03/11 01:28:57;;;;;;;8.73;8.00;;;8.10;99.90;;;;;;4973000;28;20209;-62
2024/03/11 01:31:24;;;;;;;8.03;7.33;;;8.10;99.90;;;;;;4972746;28;20452;-61
2024/03/11 01:33:51;;;;;;;7.55;6.85;;;8.10;99.90;;;;;;4972525;28;20464;-62
2024/03/11 01:36:18;;;;;;;7.80;7.17;;;8.00;99.90;;;;;;4972427;28;20211;-62
2024/03/11 01:38:47;;;;;;;8.95;8.25;;;8.00;99.90;;;;;;4972197;28;20484;-62
2024/03/11 01:41:14;;;;;;;8.47;7.77;;;8.00;99.90;;;;;;4971987;28;20207;-61
2024/03/11 01:43:41;;;;;;;7.60;7.10;;;8.10;99.90;;;;;;4972265;28;21039;-61
2024/03/11 01:46:09;;;;;;;6.80;6.30;;;8.10;99.90;;;;;;4972626;28;20452;-62
2024/03/11 01:48:37;;;;;;;7.43;6.87;;;8.10;99.90;;;;;;4972272;28;20204;-62
2024/03/11 01:51:05;;;;;;;6.30;5.70;;;8.10;99.90;;;;;;4971891;28;20456;-61
2024/03/11 01:53:32;;;;;;;6.18;5.65;;;8.10;99.90;;;;;;4971972;28;20539;-61
2024/03/11 01:56:01;;;;;;;6.10;5.13;;;8.10;99.90;;;;;;4971924;28;20216;-61
2024/03/11 01:58:30;;;;;;;5.83;5.43;;;8.10;99.90;;;;;;4972244;28;21041;-61
2024/03/11 02:00:57;;;;;;;5.47;5.07;;;8.10;99.90;;;;;;4972256;28;20453;-61
2024/03/11 02:03:23;;;;;;;5.97;4.68;;;8.10;99.90;;;;;;4971801;28;20464;-62
2024/03/11 02:05:52;;;;;;;4.93;4.50;;;8.10;99.90;;;;;;4971789;28;20734;-61
2024/03/11 02:08:21;;;;;;;5.10;4.70;;;8.00;99.90;;;;;;4958807;28;20541;-62
2024/03/11 02:10:48;;;;;;;3.90;3.60;;;8.00;99.90;;;;;;4970295;28;20459;-61
2024/03/11 02:13:17;;;;;;;4.60;4.20;;;8.00;99.90;;;;;;4970647;28;20467;-62
2024/03/11 02:15:44;;;;;;;3.40;3.20;;;8.00;99.90;;;;;;4973242;28;20827;-62
2024/03/11 02:18:11;;;;;;;3.43;3.23;;;8.00;99.90;;;;;;4982825;28;20450;-62
2024/03/11 02:20:40;;;;;;;3.60;3.30;;;8.00;99.90;;;;;;4976633;28;20535;-61
2024/03/11 02:23:08;;;;;;;3.60;3.40;;;8.00;99.90;;;;;;4971922;28;20453;-61
2024/03/11 02:25:35;;;;;;;3.13;2.83;;;8.10;99.90;;;;;;4972030;28;20453;-61
2024/03/11 02:28:03;;;;;;;2.55;2.40;;;8.10;99.90;;;;;;4971662;28;20503;-61
2024/03/11 02:30:30;;;;;;;3.30;3.10;;;8.10;99.90;;;;;;4971225;28;20288;-61
2024/03/11 02:32:57;;;;;;;3.28;3.08;;;8.10;99.90;;;;;;4971812;28;20452;-61
2024/03/11 02:35:25;;;;;;;3.45;3.15;;;8.10;99.90;;;;;;4971489;28;20233;-62
2024/03/11 02:37:52;;;;;;;4.20;3.90;;;8.10;99.90;;;;;;4972026;28;20213;-61
2024/03/11 02:40:26;;;;;;;4.20;3.70;;;8.10;99.90;;;;;;4971932;28;20491;-61
2024/03/11 02:42:53;;;;;;;3.10;2.90;;;8.00;99.90;;;;;;4971971;28;20205;-61
2024/03/11 02:45:21;;;;;;;3.83;3.53;;;8.00;99.90;;;;;;4972056;28;20328;-61
2024/03/11 02:47:49;;;;;;;3.63;3.38;;;8.00;99.90;;;;;;4971878;28;20735;-61
2024/03/11 02:50:16;;;;;;;4.25;3.95;;;8.00;99.90;;;;;;4971889;28;20572;-62
2024/03/11 02:52:43;;;;;;;4.70;3.63;;;8.00;99.90;;;;;;4972235;28;20212;-61
2024/03/11 02:55:14;;;;;;;4.47;3.20;;;8.00;99.90;;;;;;4971762;28;20259;-61
2024/03/11 02:57:43;;;;;;;4.13;3.72;;;8.00;99.90;;;;;;4971974;28;20460;-61
2024/03/11 03:00:11;;;;;;;4.38;3.95;;;8.00;99.90;;;;;;4971707;28;20731;-62
2024/03/11 03:02:38;;;;;;;3.83;3.50;;;8.00;99.90;;;;;;4971663;28;20228;-61
2024/03/11 03:05:06;;;;;;;5.70;3.80;;;8.00;99.90;;;;;;4971653;28;20474;-61
2024/03/11 03:07:33;;;;;;;5.45;4.95;;;8.00;99.90;;;;;;4971882;28;20453;-61
2024/03/11 03:10:00;;;;;;;4.70;4.30;;;8.00;99.90;;;;;;4971611;28;20296;-62
2024/03/11 03:12:29;;;;;;;4.68;4.10;;;8.00;99.90;;;;;;4979406;28;20460;-61
2024/03/11 03:14:58;;;;;;;3.03;2.80;;;8.00;99.90;;;;;;4988553;28;20224;-61
2024/03/11 03:17:25;;;;;;;3.90;3.60;;;8.00;99.90;;;;;;4991223;28;20451;-62
2024/03/11 03:19:51;;;;;;;4.23;3.83;;;8.00;99.90;;;;;;4991049;28;20267;-62
2024/03/11 03:22:18;;;;;;;3.73;3.43;;;8.00;99.90;;;;;;4991197;28;20450;-62
2024/03/11 03:24:45;;;;;;;4.35;4.05;;;8.00;99.90;;;;;;4991212;28;20467;-61
2024/03/11 03:27:12;;;;;;;4.05;3.65;;;7.90;99.90;;;;;;4991038;28;20218;-61
2024/03/11 03:29:40;;;;;;;4.30;3.83;;;7.90;99.90;;;;;;4988693;28;20209;-61
2024/03/11 03:32:09;;;;;;;5.50;4.10;;;7.90;99.90;;;;;;4981749;28;20452;-61
2024/03/11 03:34:36;;;;;;;4.10;3.70;;;7.90;99.90;;;;;;4991005;28;21040;-61
2024/03/11 03:37:03;;;;;;;4.03;3.73;;;7.90;99.90;;;;;;4991152;28;20454;-62
2024/03/11 03:39:30;;;;;;;4.60;4.13;;;7.90;99.90;;;;;;4990992;28;20483;-61
2024/03/11 03:41:58;;;;;;;4.90;4.23;;;7.80;99.90;;;;;;4983909;28;20452;-61
2024/03/11 03:44:25;;;;;;;5.20;4.73;;;7.90;99.90;;;;;;4987778;28;20475;-61
2024/03/11 03:46:52;;;;;;;4.80;4.40;;;7.90;99.90;;;;;;4994413;28;20961;-61
2024/03/11 03:49:21;;;;;;;5.07;4.67;;;7.80;99.90;;;;;;4994138;28;20447;-61
2024/03/11 03:51:48;;;;;;;5.30;4.80;;;7.80;99.90;;;;;;4994048;28;20452;-61
2024/03/11 03:54:17;;;;;;;5.53;5.10;;;7.90;99.90;;;;;;4994158;28;20323;-61
2024/03/11 03:56:46;;;;;;;4.47;4.17;;;7.90;99.90;;;;;;4987254;28;20213;-61
2024/03/11 03:59:12;;;;;;;5.93;5.40;;;7.90;99.90;;;;;;4985448;28;20498;-61
2024/03/11 04:01:39;;;;;;;5.80;5.07;;;7.80;99.90;;;;;;4994066;28;20217;-62
2024/03/11 04:04:06;;;;;;;5.97;5.47;;;7.80;99.90;;;;;;4993961;28;20240;-61
2024/03/11 04:06:34;;;;;;;5.20;4.72;;;7.80;99.90;;;;;;4994160;28;20458;-62
2024/03/11 04:09:01;;;;;;;4.60;4.20;;;7.80;99.90;;;;;;4994012;28;20830;-61
2024/03/11 04:11:28;;;;;;;5.35;4.95;;;7.80;99.90;;;;;;4993583;28;20542;-62
2024/03/11 04:13:54;;;;;;;4.30;4.00;;;7.80;99.90;;;;;;4993692;28;20752;-62
2024/03/11 04:16:21;;;;;;;5.43;4.93;;;7.80;99.90;;;;;;4994067;28;20451;-62
2024/03/11 04:18:48;;;;;;;4.18;3.83;;;7.80;99.90;;;;;;4993775;28;20299;-62
2024/03/11 04:21:16;;;;;;;3.90;3.60;;;7.80;99.90;;;;;;4992728;28;20567;-62
2024/03/11 04:23:44;;;;;;;5.17;4.67;;;7.80;99.90;;;;;;4993652;28;20733;-62
2024/03/11 04:26:11;;;;;;;3.22;3.03;;;7.80;99.90;;;;;;4993944;28;20451;-61
2024/03/11 04:28:38;;;;;;;3.00;2.80;;;7.80;99.90;;;;;;4993811;28;20208;-62
2024/03/11 04:31:05;;;;;;;3.03;2.83;;;7.80;99.90;;;;;;4976900;28;20451;-61
2024/03/11 04:33:33;;;;;;;3.13;2.92;;;7.80;99.90;;;;;;4974341;28;20236;-61
2024/03/11 04:36:00;;;;;;;2.30;2.13;;;7.70;99.90;;;;;;4974386;28;20284;-61
2024/03/11 04:38:27;;;;;;;2.25;2.10;;;7.70;99.90;;;;;;4974134;28;20764;-62
2024/03/11 04:40:56;;;;;;;1.80;1.70;;;7.70;99.90;;;;;;4973645;28;20229;-61
2024/03/11 04:43:23;;;;;;;1.95;1.83;;;7.70;99.90;;;;;;4974009;28;20472;-62
2024/03/11 04:45:50;;;;;;;2.17;1.97;;;7.70;99.90;;;;;;4973923;28;20316;-62
2024/03/11 04:48:19;;;;;;;1.73;1.63;;;7.70;99.90;;;;;;4974058;28;20457;-62
2024/03/11 04:50:47;;;;;;;1.23;1.23;;;7.70;99.90;;;;;;4973700;28;20201;-62
2024/03/11 04:53:16;;;;;;;1.77;1.63;;;7.60;99.90;;;;;;4973678;28;20263;-61
2024/03/11 04:55:43;;;;;;;1.23;1.15;;;7.60;99.90;;;;;;4973858;28;20256;-61
2024/03/11 04:58:12;;;;;;;2.03;1.70;;;7.60;99.90;;;;;;4973761;28;20231;-62
2024/03/11 05:00:39;;;;;;;1.60;1.50;;;7.60;99.90;;;;;;4973548;28;20232;-61
2024/03/11 05:03:06;;;;;;;2.20;2.10;;;7.60;99.90;;;;;;4973680;28;20834;-62
2024/03/11 05:05:35;;;;;;;1.55;1.45;;;7.60;99.90;;;;;;4973407;28;20951;-62
2024/03/11 05:08:03;;;;;;;1.33;1.33;;;7.60;99.90;;;;;;4973616;28;20209;-61
2024/03/11 05:10:30;;;;;;;7.38;1.75;;;7.60;99.90;;;;;;4973320;28;20473;-62
2024/03/11 05:12:58;;;;;;;2.75;2.55;;;7.60;99.90;;;;;;4973348;28;20217;-61
2024/03/11 05:15:27;;;;;;;2.25;2.15;;;7.60;99.90;;;;;;4973327;28;20788;-62
2024/03/11 05:17:53;;;;;;;1.92;1.83;;;7.50;99.90;;;;;;4973569;28;20220;-62
2024/03/11 05:20:20;;;;;;;2.03;1.93;;;7.50;99.90;;;;;;4972939;28;20280;-62
2024/03/11 05:22:49;;;;;;;1.75;1.65;;;7.50;99.90;;;;;;4973414;28;20463;-62
2024/03/11 05:25:17;;;;;;;2.38;2.22;;;7.50;99.90;;;;;;4973188;28;20235;-62
2024/03/11 05:27:44;;;;;;;1.90;1.80;;;7.50;99.90;;;;;;4973369;28;20280;-61
2024/03/11 05:30:12;;;;;;;1.98;1.88;;;7.50;99.90;;;;;;4973060;28;20328;-61
2024/03/11 05:32:41;;;;;;;2.72;2.47;;;7.40;99.90;;;;;;4973095;28;20209;-61
2024/03/11 05:35:08;;;;;;;2.88;2.50;;;7.40;99.90;;;;;;4973072;28;20605;-61
2024/03/11 05:37:35;;;;;;;2.47;2.10;;;7.30;99.90;;;;;;4972995;28;20212;-61
2024/03/11 05:40:05;;;;;;;3.95;2.00;;;7.30;99.90;;;;;;4972496;28;20232;-62
2024/03/11 05:42:32;;;;;;;1.85;1.75;;;7.20;99.90;;;;;;4972872;28;20213;-61
2024/03/11 05:44:59;;;;;;;2.92;2.72;;;7.20;99.90;;;;;;4972858;28;20236;-62
2024/03/11 05:47:26;;;;;;;1.98;1.88;;;7.20;99.90;;;;;;4972970;28;20621;-61
2024/03/11 05:49:55;;;;;;;1.70;1.60;;;7.10;99.90;;;;;;4972649;28;20205;-62
2024/03/11 05:52:24;;;;;;;1.65;1.55;;;7.10;99.90;;;;;;4972687;28;20213;-61
2024/03/11 05:54:52;;;;;;;1.88;1.77;;;7.00;99.90;;;;;;4972607;28;20233;-62
2024/03/11 05:57:23;;;;;;;2.15;1.60;;;6.90;99.90;;;;;;4972851;28;20216;-62
2024/03/11 05:59:51;;;;;;;1.70;1.60;;;6.80;99.90;;;;;;4972426;28;20233;-62
2024/03/11 06:02:18;;;;;;;1.77;1.50;;;6.70;99.90;;;;;;4972692;28;20213;-61
2024/03/11 06:04:46;;;;;;;1.88;1.65;;;6.60;99.90;;;;;;4972057;28;20237;-61
2024/03/11 06:07:15;;;;;;;1.60;1.50;;;6.60;99.90;;;;;;4972462;28;20213;-61
2024/03/11 06:09:41;;;;;;;1.80;1.70;;;6.60;99.90;;;;;;4970414;28;20213;-62
2024/03/11 06:12:10;;;;;;;1.73;1.63;;;6.50;99.90;;;;;;4982151;28;20683;-61
2024/03/11 06:14:37;;;;;;;1.67;1.58;;;6.50;99.90;;;;;;4985759;28;20239;-61
2024/03/11 06:17:07;;;;;;;1.80;1.70;;;6.40;99.90;;;;;;4991877;28;20208;-62
2024/03/11 06:19:33;;;;;;;2.03;1.83;;;6.50;99.90;;;;;;4991508;28;20577;-61
2024/03/11 06:22:00;;;;;;;1.60;1.50;;;6.50;99.90;;;;;;4991694;28;20210;-61
2024/03/11 06:24:30;;;;;;;6.78;2.33;;;6.50;99.90;;;;;;4991646;28;20234;-62
2024/03/11 06:26:57;;;;;;;2.50;2.15;;;6.50;99.90;;;;;;4991871;28;20216;-62
2024/03/11 06:29:26;;;;;;;7.53;2.28;;;6.50;99.90;;;;;;4991725;28;20219;-62
2024/03/11 06:31:53;;;;;;;2.30;2.20;;;6.60;99.90;;;;;;4991348;28;20697;-62
2024/03/11 06:34:23;;;;;;;2.30;2.15;;;6.70;99.90;;;;;;4991837;28;20239;-62
2024/03/11 06:36:50;;;;;;;2.33;2.13;;;6.80;99.90;;;;;;4982830;28;20580;-61
2024/03/11 06:39:18;;;;;;;2.90;2.70;;;6.90;99.90;;;;;;4972061;28;20769;-62
2024/03/11 06:41:47;;;;;;;3.85;3.65;;;6.90;99.90;;;;;;4971747;28;20605;-61
2024/03/11 06:44:14;;;;;;;3.70;3.15;;;7.00;99.90;;;;;;4972017;28;20687;-61
2024/03/11 06:46:40;;;;;;;5.10;4.70;;;7.10;99.90;;;;;;4972019;28;20211;-61
2024/03/11 06:49:08;;;;;;;6.60;6.00;;;7.20;99.90;;;;;;4972284;28;20212;-61
2024/03/11 06:51:35;;;;;;;7.32;6.45;;;7.20;99.90;;;;;;4971965;28;20584;-61
2024/03/11 06:54:01;;;;;;;5.75;5.25;;;7.30;99.90;;;;;;4971960;28;20240;-61
2024/03/11 06:56:30;;;;;;;6.40;5.80;;;7.40;99.90;;;;;;4972099;28;20304;-61
2024/03/11 06:58:58;;;;;;;6.47;5.93;;;7.50;99.90;;;;;;4971997;28;20627;-61
2024/03/11 07:01:27;;;;;;;5.78;5.32;;;7.50;99.90;;;;;;4971614;28;20229;-61
2024/03/11 07:03:54;;;;;;;6.03;5.43;;;7.60;99.90;;;;;;4971844;28;20316;-61
2024/03/11 07:06:22;;;;;;;5.55;5.10;;;7.70;99.90;;;;;;4972034;28;20653;-61
2024/03/11 07:08:51;;;;;;;5.70;5.20;;;7.80;99.90;;;;;;4971956;28;20303;-61
2024/03/11 07:11:17;;;;;;;5.73;5.07;;;7.90;99.90;;;;;;4971599;28;20455;-61
2024/03/11 07:13:44;;;;;;;6.03;5.43;;;7.90;99.90;;;;;;4971523;28;20567;-61
2024/03/11 07:16:13;;;;;;;5.93;5.43;;;8.10;99.90;;;;;;4972448;28;20212;-61
2024/03/11 07:18:41;;;;;;;4.95;4.63;;;8.10;99.90;;;;;;4975322;28;20220;-61
2024/03/11 07:21:08;;;;;;;6.07;5.57;;;8.20;99.90;;;;;;4975119;28;20239;-61
2024/03/11 07:23:35;;;;;;;6.60;4.60;;;8.30;99.90;;;;;;4975565;28;21056;-61
2024/03/11 07:26:02;;;;;;;5.25;4.30;;;8.30;99.90;;;;;;4975520;28;20452;-61
2024/03/11 07:28:31;;;;;;;5.17;4.77;;;8.40;99.90;;;;;;4975629;28;20215;-61
2024/03/11 07:30:58;;;;;;;5.03;4.63;;;8.50;99.90;;;;;;4975114;28;20451;-61
2024/03/11 07:33:26;;;;;;;6.43;4.87;;;8.50;99.90;;;;;;4975410;28;20468;-62
2024/03/11 07:35:53;;;;;;;5.00;4.60;;;8.60;99.90;;;;;;4975109;28;20495;-61
2024/03/11 07:38:23;;;;;;;4.97;4.57;;;8.60;99.90;;;;;;4975098;28;20458;-63
2024/03/11 07:40:50;;;;;;;4.67;4.23;;;8.60;99.90;;;;;;4974554;28;20485;-61
2024/03/11 07:43:16;;;;;;;4.70;4.37;;;8.60;99.90;;;;;;4982884;28;20452;-61
2024/03/11 07:45:43;;;;;;;4.90;3.27;;;8.70;99.90;;;;;;4989381;28;20453;-61
2024/03/11 07:48:12;;;;;;;3.60;3.40;;;8.70;99.90;;;;;;4994270;28;20451;-61
2024/03/11 07:50:41;;;;;;;3.13;2.93;;;8.70;99.90;;;;;;4993951;28;20454;-61
2024/03/11 07:53:08;;;;;;;3.60;3.40;;;8.70;99.90;;;;;;4993890;28;21018;-61
2024/03/11 07:55:36;;;;;;;3.78;3.47;;;8.70;99.90;;;;;;4994345;28;20470;-61
2024/03/11 07:58:04;;;;;;;3.83;3.53;;;8.70;99.90;;;;;;4992995;28;20205;-61
2024/03/11 08:00:31;;;;;;;5.37;4.87;;;8.80;99.90;;;;;;4993887;28;20498;-61
2024/03/11 08:02:59;;;;;;;4.77;4.03;;;8.80;99.90;;;;;;4981662;28;20514;-61
2024/03/11 08:05:27;;;;;;;5.17;4.67;;;8.80;99.90;;;;;;4985903;28;20996;-61
2024/03/11 08:07:56;;;;;;;3.77;3.57;;;8.90;99.90;;;;;;4981772;28;20960;-61
2024/03/11 08:10:25;;;;;;;3.27;3.10;;;9.00;99.90;;;;;;4965029;28;20456;-61
2024/03/11 08:12:52;;;;;;;3.90;3.60;;;9.10;99.90;;;;;;4971279;28;20503;-61
2024/03/11 08:15:20;;;;;;;4.53;3.50;;;9.10;99.90;;;;;;4973881;28;21261;-61
2024/03/11 08:17:49;;;;;;;3.70;3.40;;;9.20;99.90;;;;;;4974365;28;20456;-61
2024/03/11 08:20:17;;;;;;;3.87;3.50;;;9.30;99.90;;;;;;4973783;28;20499;-61
2024/03/11 08:22:45;;;;;;;2.90;2.60;;;9.40;99.90;;;;;;4974306;28;21038;-61
2024/03/11 08:25:15;;;;;;;2.73;2.57;;;9.40;99.90;;;;;;4974193;28;20888;-61
2024/03/11 08:27:42;;;;;;;3.30;3.10;;;9.50;99.90;;;;;;4973616;28;20448;-61
2024/03/11 08:30:11;;;;;;;3.40;3.10;;;9.70;99.90;;;;;;4973960;28;20830;-61
2024/03/11 08:32:39;;;;;;;3.10;2.90;;;9.80;99.90;;;;;;4974045;28;20457;-61
2024/03/11 08:35:07;;;;;;;3.17;2.97;;;9.90;99.90;;;;;;4973843;28;20472;-61
2024/03/11 08:37:34;;;;;;;2.93;2.70;;;10.10;99.90;;;;;;4974022;28;20560;-61
2024/03/11 08:40:04;;;;;;;2.20;1.90;;;10.20;99.90;;;;;;4973592;28;20535;-62
2024/03/11 08:42:32;;;;;;;3.70;3.20;;;10.30;99.90;;;;;;4973963;28;20445;-61
2024/03/11 08:44:59;;;;;;;2.40;2.20;;;10.40;99.90;;;;;;4973659;28;20551;-61
2024/03/11 08:47:27;;;;;;;2.63;2.43;;;10.50;99.90;;;;;;4973642;28;20471;-61
2024/03/11 08:49:54;;;;;;;2.00;1.90;;;10.60;99.90;;;;;;4973406;28;20452;-61
2024/03/11 08:52:21;;;;;;;3.20;2.57;;;10.70;99.90;;;;;;4981446;28;20951;-61
2024/03/11 08:54:50;;;;;;;3.47;2.90;;;10.90;99.90;;;;;;4988285;28;20467;-61
2024/03/11 08:57:17;;;;;;;2.20;2.10;;;11.00;99.90;;;;;;4992879;28;20530;-61
2024/03/11 08:59:46;;;;;;;1.80;1.70;;;11.10;99.90;;;;;;4992518;28;20945;-62
2024/03/11 09:02:14;;;;;;;2.10;2.00;;;11.30;99.90;;;;;;4992677;28;20495;-61
2024/03/11 09:04:41;;;;;;;2.63;2.20;;;11.40;99.90;;;;;;4982609;28;20986;-62
2024/03/11 09:07:09;;;;;;;3.27;1.90;;;11.60;99.90;;;;;;4972835;28;20441;-61
2024/03/11 09:09:36;;;;;;;1.90;1.70;;;11.60;99.90;;;;;;4972595;28;20449;-61
2024/03/11 09:12:05;;;;;;;1.80;1.70;;;11.70;99.90;;;;;;4972979;28;20532;-62
2024/03/11 09:14:32;;;;;;;2.70;2.17;;;11.70;99.90;;;;;;4973071;28;20881;-61
2024/03/11 09:17:01;;;;;;;2.73;1.97;;;11.70;99.90;;;;;;4973343;28;20448;-61
2024/03/11 09:19:30;;;;;;;2.30;1.63;;;11.70;99.90;;;;;;4973278;28;20444;-61
2024/03/11 09:21:57;;;;;;;4.07;2.13;;;11.80;99.90;;;;;;4972992;28;21034;-61
2024/03/11 09:24:25;;;;;;;2.13;1.60;;;11.90;99.90;;;;;;4973301;28;20472;-61
2024/03/11 09:26:52;;;;;;;2.73;1.80;;;11.90;99.90;;;;;;4973305;28;20529;-62
2024/03/11 09:29:20;;;;;;;1.17;1.07;;;12.00;99.90;;;;;;4973424;28;20547;-61
2024/03/11 09:31:47;;;;;;;1.90;1.47;;;12.10;99.90;;;;;;4973022;28;20450;-62
2024/03/11 09:34:16;;;;;;;1.50;1.40;;;12.10;99.90;;;;;;4973077;28;20475;-61
2024/03/11 09:36:43;;;;;;;1.90;1.70;;;12.10;99.90;;;;;;4972884;28;20452;-62
2024/03/11 09:39:11;;;;;;;1.90;1.80;;;12.20;99.90;;;;;;4972144;28;20453;-61
2024/03/11 09:41:41;;;;;;;2.00;1.63;;;12.30;99.90;;;;;;4972364;28;20496;-61
2024/03/11 09:44:14;;;;;;;1.90;1.80;;;12.40;99.90;;;;;;4972505;28;20504;-61
2024/03/11 09:46:42;;;;;;;2.33;2.23;;;12.60;99.90;;;;;;4972613;28;20456;-61
2024/03/11 09:49:10;;;;;;;1.77;1.67;;;12.90;99.90;;;;;;4972757;28;20463;-61
2024/03/11 09:51:40;;;;;;;17.90;2.93;;;13.00;99.90;;;;;;4972315;28;20963;-62
2024/03/11 09:54:13;;;;;;;2.33;1.30;;;13.20;99.90;;;;;;4972289;28;20484;-62
2024/03/11 09:56:40;;;;;;;1.67;1.57;;;13.20;99.90;;;;;;4972786;28;20456;-62
2024/03/11 09:59:09;;;;;;;1.67;1.57;;;13.00;99.90;;;;;;4972626;28;20464;-62
2024/03/11 10:01:42;;;;;;;1.50;1.40;;;13.00;99.90;;;;;;4972228;28;20488;-62
2024/03/11 10:04:09;;;;;;;1.53;1.30;;;13.20;99.90;;;;;;4972448;28;20473;-62
2024/03/11 10:06:39;;;;;;;1.03;1.03;;;13.40;99.90;;;;;;4970463;28;20453;-62
2024/03/11 10:09:07;;;;;;;2.60;1.70;;;13.40;99.90;;;;;;4971500;28;20805;-62
2024/03/11 10:11:33;;;;;;;1.20;1.20;;;13.40;99.90;;;;;;4971774;28;20499;-62
2024/03/11 10:14:18;;;;;;;1.50;1.40;;;13.30;99.90;;;;;;4971777;28;20473;-62
2024/03/11 10:16:45;;;;;;;4.40;1.10;;;13.30;99.90;;;;;;4971776;28;20452;-62
2024/03/11 10:19:12;;;;;;;1.67;1.57;;;13.40;99.90;;;;;;4971785;28;20930;-62
2024/03/11 10:21:41;;;;;;;2.10;2.00;;;13.50;99.90;;;;;;4971845;28;20577;-62
2024/03/11 10:24:09;;;;;;;1.37;1.30;;;13.60;99.90;;;;;;4968967;28;20467;-62
2024/03/11 10:26:40;;;;;;;1.90;1.60;;;13.50;99.90;;;;;;4974106;28;20462;-62
2024/03/11 10:29:08;;;;;;;2.80;1.83;;;13.40;99.90;;;;;;4990796;28;20918;-62
2024/03/11 10:31:36;;;;;;;2.30;2.10;;;13.60;99.90;;;;;;4990277;28;20539;-62
2024/03/11 10:34:12;;;;;;;1.10;1.00;;;13.70;99.90;;;;;;4990742;28;20467;-62
2024/03/11 10:36:40;;;;;;;3.20;2.20;;;13.80;99.90;;;;;;4990569;28;20513;-62
2024/03/11 10:39:09;;;;;;;1.53;1.43;;;13.90;99.90;;;;;;4990370;28;20487;-62
2024/03/11 10:41:38;;;;;;;1.80;1.70;;;14.10;99.90;;;;;;4990058;28;20526;-62
2024/03/11 10:44:15;;;;;;;1.40;1.30;;;14.10;99.90;;;;;;4990290;28;20475;-62
2024/03/11 10:46:42;;;;;;;2.50;1.07;;;14.20;99.90;;;;;;4990844;28;20538;-63
2024/03/11 10:49:12;;;;;;;1.37;1.30;;;14.30;99.90;;;;;;4971926;28;20451;-62
2024/03/11 10:51:45;;;;;;;1.27;1.17;;;14.50;99.90;;;;;;4973271;28;20452;-62
2024/03/11 10:54:23;;;;;;;1.73;1.57;;;14.60;99.90;;;;;;4974508;28;20476;-62
2024/03/11 10:56:55;;;;;;;1.20;1.10;;;14.80;99.90;;;;;;4972798;28;20448;-62
2024/03/11 10:59:23;;;;;;;1.37;1.30;;;15.00;99.90;;;;;;4974829;28;20457;-62
2024/03/11 11:01:55;;;;;;;1.40;1.30;;;14.90;99.10;;;;;;4974426;28;20495;-62
2024/03/11 11:04:28;;;;;;;4.30;2.00;;;14.90;99.90;;;;;;4974819;28;20468;-62
2024/03/11 11:06:58;;;;;;;2.43;2.20;;;14.90;99.50;;;;;;4973937;28;20448;-62
2024/03/11 11:09:27;;;;;;;1.60;1.50;;;14.90;99.90;;;;;;4974804;28;20798;-62
2024/03/11 11:11:55;;;;;;;2.17;1.97;;;14.90;98.80;;;;;;4974248;28;20975;-62
2024/03/11 11:14:24;;;;;;;1.63;1.33;;;14.60;98.90;;;;;;4974352;28;20492;-62
2024/03/11 11:16:52;;;;;;;4.20;1.80;;;14.40;99.10;;;;;;4974083;28;20526;-62
2024/03/11 11:19:23;;;;;;;3.10;1.60;;;14.10;99.10;;;;;;4974186;28;20451;-62
2024/03/11 11:21:51;;;;;;;1.13;1.10;;;13.90;99.90;;;;;;4974156;28;20479;-62
2024/03/11 11:24:30;;;;;;;1.20;1.10;;;13.80;99.90;;;;;;4974287;28;20838;-62
2024/03/11 11:27:01;;;;;;;1.70;1.40;;;13.60;99.90;;;;;;4974184;28;20448;-62
2024/03/11 11:29:29;;;;;;;3.17;1.40;;;13.60;99.90;;;;;;4974398;28;20449;-62
2024/03/11 11:32:04;;;;;;;2.87;1.53;;;13.50;99.90;;;;;;4973702;28;20947;-62
2024/03/11 11:34:50;;;;;;;1.40;1.30;;;13.50;99.90;;;;;;4974011;28;21022;-62
2024/03/11 11:37:40;;;;;;;1.50;1.13;;;13.60;99.90;;;;;;4958280;28;20444;-62
2024/03/11 11:40:31;;;;;;;1.53;1.00;;;13.90;99.90;;;;;;4954543;28;20535;-62
2024/03/11 11:42:59;;;;;;;4.43;1.40;;;14.10;99.90;;;;;;4972488;28;20480;-62
2024/03/11 11:45:54;;;;;;;1.30;1.10;;;14.40;99.90;;;;;;4972774;28;20465;-62
2024/03/11 11:48:26;;;;;;;1.27;1.13;;;14.50;99.90;;;;;;4971907;28;20464;-62
2024/03/11 11:50:57;;;;;;;1.57;0.87;;;14.40;98.90;;;;;;4973613;28;20452;-62
2024/03/11 11:53:29;;;;;;;2.93;1.00;;;14.30;99.60;;;;;;4973997;28;21968;-62
2024/03/11 11:55:58;;;;;;;1.20;0.90;;;14.40;99.50;;;;;;4973770;28;20449;-62
2024/03/11 11:58:25;;;;;;;2.07;1.10;;;14.60;99.00;;;;;;4973688;28;20535;-62
2024/03/11 12:01:04;;;;;;;0.90;0.90;;;14.80;98.50;;;;;;4973387;28;20452;-62
2024/03/11 12:03:34;;;;;;;0.90;0.90;;;14.90;97.20;;;;;;4969908;28;20515;-62
2024/03/11 12:06:23;;;;;;;1.73;0.90;;;15.00;97.50;;;;;;4972866;28;20444;-62
2024/03/11 12:08:51;;;;;;;0.90;0.90;;;15.00;98.00;;;;;;4970003;28;20539;-62
2024/03/11 12:11:20;;;;;;;1.63;1.30;;;14.90;99.00;;;;;;4976673;28;20556;-62
2024/03/11 12:13:48;;;;;;;1.07;0.97;;;15.10;98.60;;;;;;4973130;28;20547;-62
2024/03/11 12:16:23;;;;;;;1.20;1.10;;;15.50;99.40;;;;;;4972986;28;20448;-62
2024/03/11 12:19:00;;;;;;;0.83;0.83;;;16.00;98.20;;;;;;4973423;28;20456;-62
2024/03/11 12:21:28;;;;;;;1.10;1.00;;;16.40;97.40;;;;;;4972909;28;20459;-62
2024/03/11 12:23:56;;;;;;;0.97;0.80;;;16.70;95.70;;;;;;4972836;28;20479;-62
2024/03/11 12:26:26;;;;;;;5.27;1.97;;;16.80;94.00;;;;;;4972812;28;21017;-62
2024/03/11 12:29:05;;;;;;;1.03;0.93;;;16.90;93.40;;;;;;4973331;28;21632;-62
2024/03/11 12:31:34;;;;;;;0.83;0.83;;;17.10;93.40;;;;;;4972764;28;20445;-62
2024/03/11 12:34:02;;;;;;;2.00;0.60;;;17.20;92.00;;;;;;4972976;28;20472;-62
2024/03/11 12:36:30;;;;;;;1.80;0.93;;;17.20;90.70;;;;;;4972626;28;20536;-62
2024/03/11 12:38:58;;;;;;;2.30;0.70;;;17.00;91.50;;;;;;4973016;28;20452;-62
2024/03/11 12:41:40;;;;;;;0.73;0.73;;;17.00;92.20;;;;;;4972607;28;20946;-62
2024/03/11 12:44:14;;;;;;;0.70;0.70;;;16.90;89.60;;;;;;4963791;28;20468;-62
2024/03/11 12:46:43;;;;;;;0.70;0.70;;;16.90;92.60;;;;;;4972631;28;20444;-62
2024/03/11 12:49:11;;;;;;;0.90;0.90;;;17.20;91.10;;;;;;4972674;28;21000;-62
2024/03/11 12:51:39;;;;;;;2.20;0.73;;;17.70;91.90;;;;;;4971765;28;20448;-62
2024/03/11 12:54:18;;;;;;;2.03;0.90;;;18.30;87.60;;;;;;4972082;28;21724;-62
2024/03/11 12:56:51;;;;;;;3.50;0.90;;;18.50;85.20;;;;;;4972392;28;20449;-62
2024/03/11 12:59:18;;;;;;;2.10;0.90;;;18.60;89.30;;;;;;4971565;28;20592;-62